createdAt,value
2019-04-25T00:00:42.205Z,75.59
2019-04-25T00:03:12.277Z,75.49
2019-04-25T00:05:39.620Z,75.49
2019-04-25T00:08:06.811Z,74.82
2019-04-25T00:10:35.170Z,74.53
2019-04-25T00:13:04.514Z,74.18
2019-04-25T00:15:32.002Z,73.67
2019-04-25T00:17:59.053Z,73.98
2019-04-25T00:20:28.435Z,74.30
2019-04-25T00:23:05.785Z,73.99
2019-04-25T00:25:51.317Z,74.02
2019-04-25T00:28:18.646Z,74.08
2019-04-25T00:30:46.083Z,73.93
2019-04-25T00:33:13.269Z,73.64
2019-04-25T00:35:42.521Z,73.25
2019-04-25T00:38:09.330Z,72.55
2019-04-25T00:40:36.437Z,72.42
2019-04-25T00:43:06.028Z,72.93
2019-04-25T00:45:34.859Z,73.92
2019-04-25T00:48:04.289Z,74.29
2019-04-25T00:50:34.429Z,74.54
2019-04-25T00:53:01.474Z,74.14
2019-04-25T00:55:31.481Z,73.88
2019-04-25T00:58:11.491Z,73.79
2019-04-25T01:01:04.244Z,73.54
2019-04-25T01:03:32.422Z,73.53
2019-04-25T01:05:59.512Z,74.00
2019-04-25T01:08:26.615Z,73.73
2019-04-25T01:10:54.280Z,73.74
2019-04-25T01:13:24.140Z,73.33
2019-04-25T01:15:52.855Z,72.91
2019-04-25T01:18:25.192Z,72.94
2019-04-25T01:20:53.591Z,73.02
2019-04-25T01:23:21.663Z,73.15
2019-04-25T01:25:49.479Z,73.27
2019-04-25T01:28:16.565Z,73.58
2019-04-25T01:30:43.916Z,73.47
2019-04-25T01:33:13.467Z,73.02
2019-04-25T01:35:55.772Z,73.29
2019-04-25T01:38:38.326Z,73.41
2019-04-25T01:41:24.190Z,73.63
2019-04-25T01:44:04.545Z,73.69
2019-04-25T01:46:31.943Z,73.80
2019-04-25T01:48:59.263Z,73.41
2019-04-25T01:51:26.352Z,73.48
2019-04-25T01:53:54.830Z,73.22
2019-04-25T01:56:23.032Z,73.39
2019-04-25T01:58:51.610Z,73.43
2019-04-25T02:01:18.643Z,74.08
2019-04-25T02:03:45.670Z,74.95
2019-04-25T02:06:13.635Z,74.74
2019-04-25T02:08:41.279Z,74.36
2019-04-25T02:11:19.901Z,75.16
2019-04-25T02:13:46.941Z,75.05
2019-04-25T02:16:16.435Z,75.31
2019-04-25T02:18:43.630Z,75.15
2019-04-25T02:21:10.902Z,75.06
2019-04-25T02:23:37.941Z,74.85
2019-04-25T02:26:15.284Z,74.98
2019-04-25T02:28:34.312Z,74.64
2019-04-25T02:31:03.786Z,74.42
2019-04-25T02:33:30.315Z,74.81
2019-04-25T02:35:59.440Z,75.00
2019-04-25T02:38:26.511Z,74.76
2019-04-25T02:40:56.297Z,74.82
2019-04-25T02:43:23.987Z,74.62
2019-04-25T02:46:19.738Z,74.68
2019-04-25T02:49:28.971Z,74.83
2019-04-25T02:51:49.725Z,75.16
2019-04-25T02:54:16.840Z,74.91
2019-04-25T02:56:46.428Z,75.23
2019-04-25T02:59:14.925Z,75.28
2019-04-25T03:01:44.346Z,74.79
2019-04-25T03:04:11.550Z,74.33
2019-04-25T03:06:38.889Z,73.77
2019-04-25T03:09:09.741Z,73.25
2019-04-25T03:11:36.809Z,72.59
2019-04-25T03:14:06.996Z,72.78
2019-04-25T03:16:34.735Z,72.76
2019-04-25T03:19:14.693Z,72.85
2019-04-25T03:21:45.222Z,73.04
2019-04-25T03:24:16.350Z,73.12
2019-04-25T03:26:44.331Z,73.61
2019-04-25T03:29:13.644Z,73.79
2019-04-25T03:31:45.005Z,73.79
2019-04-25T03:34:19.120Z,73.57
2019-04-25T03:36:44.457Z,73.39
2019-04-25T03:39:11.481Z,73.34
2019-04-25T03:41:38.552Z,73.55
2019-04-25T03:44:06.471Z,73.41
2019-04-25T03:46:33.673Z,73.59
2019-04-25T03:49:01.223Z,73.52
2019-04-25T03:51:29.041Z,73.94
2019-04-25T03:53:56.084Z,74.44
2019-04-25T03:56:24.508Z,74.92
2019-04-25T03:58:53.957Z,74.90
2019-04-25T04:01:21.044Z,75.13
2019-04-25T04:03:48.420Z,74.83
2019-04-25T04:06:15.712Z,75.32
2019-04-25T04:08:44.458Z,74.91
2019-04-25T04:11:12.127Z,74.70
2019-04-25T04:13:45.255Z,74.42
2019-04-25T04:16:15.373Z,74.07
2019-04-25T04:18:44.460Z,74.04
2019-04-25T04:21:26.910Z,76.33
2019-04-25T04:24:19.478Z,76.84
2019-04-25T04:27:06.728Z,77.45
2019-04-25T04:29:36.295Z,76.03
2019-04-25T04:32:03.563Z,76.27
2019-04-25T04:34:30.928Z,78.14
2019-04-25T04:36:57.979Z,78.53
2019-04-25T04:39:25.021Z,77.69
2019-04-25T04:41:53.507Z,76.89
2019-04-25T04:44:23.999Z,75.89
2019-04-25T04:46:53.855Z,73.58
2019-04-25T04:49:21.163Z,72.17
2019-04-25T04:51:48.213Z,70.67
2019-04-25T04:54:15.520Z,69.40
2019-04-25T04:56:43.842Z,68.54
2019-04-25T04:59:12.864Z,67.91
2019-04-25T05:02:01.111Z,67.60
2019-04-25T05:04:40.004Z,67.46
2019-04-25T05:07:29.727Z,67.52
2019-04-25T05:09:56.765Z,68.03
2019-04-25T05:12:24.132Z,65.50
2019-04-25T05:14:51.301Z,64.28
2019-04-25T05:17:20.420Z,62.52
2019-04-25T05:19:47.440Z,60.33
2019-04-25T05:22:16.886Z,57.70
2019-04-25T05:24:46.732Z,58.04
2019-04-25T05:27:16.660Z,57.05
2019-04-25T05:29:46.288Z,55.63
2019-04-25T05:32:17.297Z,53.24
2019-04-25T05:34:46.133Z,53.20
2019-04-25T05:37:15.160Z,52.62
2019-04-25T05:39:44.099Z,50.15
2019-04-25T05:42:28.993Z,51.26
2019-04-25T05:44:58.395Z,53.45
2019-04-25T05:47:27.185Z,55.05
2019-04-25T05:49:54.385Z,58.85
2019-04-25T05:52:22.001Z,61.36
2019-04-25T05:54:49.665Z,63.13
2019-04-25T05:57:16.757Z,65.12
2019-04-25T05:59:43.889Z,65.59
2019-04-25T06:02:10.968Z,65.16
2019-04-25T06:04:38.131Z,63.81
2019-04-25T06:07:05.729Z,63.16
2019-04-25T06:09:54.254Z,61.63
2019-04-25T06:12:33.541Z,60.74
2019-04-25T06:15:03.466Z,59.13
2019-04-25T06:17:39.180Z,56.26
2019-04-25T06:20:08.013Z,55.38
2019-04-25T06:22:58.325Z,55.29
2019-04-25T06:25:32.315Z,52.78
2019-04-25T06:27:59.215Z,50.79
2019-04-25T06:30:29.607Z,49.03
2019-04-25T06:32:57.674Z,47.84
2019-04-25T06:35:26.087Z,48.54
2019-04-25T06:37:53.755Z,46.79
2019-04-25T06:40:25.098Z,50.70
2019-04-25T06:42:53.636Z,54.86
2019-04-25T06:45:50.091Z,56.34
2019-04-25T06:48:28.966Z,60.77
2019-04-25T06:50:56.458Z,62.90
2019-04-25T06:53:26.057Z,60.73
2019-04-25T06:55:57.449Z,61.86
2019-04-25T06:58:27.326Z,63.15
2019-04-25T07:00:58.779Z,60.35
2019-04-25T07:03:25.150Z,59.58
2019-04-25T07:05:54.829Z,57.70
2019-04-25T07:08:23.743Z,55.51
2019-04-25T07:10:50.801Z,53.29
2019-04-25T07:13:17.857Z,53.45
2019-04-25T07:15:44.936Z,53.16
2019-04-25T07:18:13.867Z,52.07
2019-04-25T07:20:40.945Z,53.51
2019-04-25T07:23:08.012Z,52.03
2019-04-25T07:25:38.711Z,48.72
2019-04-25T07:28:44.064Z,46.80
2019-04-25T07:31:35.843Z,41.41
2019-04-25T07:34:09.896Z,38.55
2019-04-25T07:36:38.467Z,35.51
2019-04-25T07:39:10.667Z,34.13
2019-04-25T07:41:38.510Z,36.82
2019-04-25T07:44:09.958Z,36.67
2019-04-25T07:46:40.004Z,36.70
2019-04-25T07:49:09.841Z,36.80
2019-04-25T07:51:36.848Z,40.29
2019-04-25T07:54:04.543Z,42.72
2019-04-25T07:56:34.294Z,41.29
2019-04-25T07:59:01.583Z,38.31
2019-04-25T08:01:37.504Z,34.59
2019-04-25T08:04:04.433Z,36.16
2019-04-25T08:06:33.388Z,35.73
2019-04-25T08:09:04.052Z,39.03
2019-04-25T08:11:34.175Z,39.67
2019-04-25T08:14:08.266Z,35.77
2019-04-25T08:16:37.319Z,38.86
2019-04-25T08:19:04.483Z,37.89
2019-04-25T08:21:34.412Z,42.09
2019-04-25T08:24:04.656Z,42.02
2019-04-25T08:26:34.966Z,36.33
2019-04-25T08:29:01.511Z,37.00
2019-04-25T08:31:28.576Z,41.70
2019-04-25T08:33:55.613Z,42.15
2019-04-25T08:36:23.416Z,40.55
2019-04-25T08:38:50.539Z,42.91
2019-04-25T08:41:17.591Z,43.91
2019-04-25T08:43:45.450Z,44.96
2019-04-25T08:46:20.606Z,46.61
2019-04-25T08:49:10.210Z,46.33
2019-04-25T08:51:38.507Z,45.99
2019-04-25T08:54:15.182Z,44.00
2019-04-25T08:56:43.941Z,42.35
2019-04-25T08:59:32.710Z,43.40
2019-04-25T09:02:14.596Z,42.88
2019-04-25T09:05:06.105Z,40.30
2019-04-25T09:07:36.427Z,40.83
2019-04-25T09:10:06.499Z,38.06
2019-04-25T09:12:35.598Z,37.78
2019-04-25T09:15:04.196Z,36.57
2019-04-25T09:17:35.601Z,36.97
2019-04-25T09:20:04.022Z,37.58
2019-04-25T09:22:31.429Z,38.09
2019-04-25T09:24:59.103Z,36.37
2019-04-25T09:27:26.910Z,36.21
2019-04-25T09:29:56.101Z,35.41
2019-04-25T09:32:23.851Z,31.21
2019-04-25T09:34:51.222Z,32.05
2019-04-25T09:37:18.398Z,30.67
2019-04-25T09:40:08.761Z,29.19
2019-04-25T09:42:36.938Z,27.26
2019-04-25T09:45:26.140Z,27.31
2019-04-25T09:47:53.507Z,26.01
2019-04-25T09:50:33.960Z,27.62
2019-04-25T09:53:01.292Z,27.74
2019-04-25T09:55:46.953Z,28.30
2019-04-25T09:58:23.904Z,29.00
2019-04-25T10:00:55.607Z,28.63
2019-04-25T10:03:24.035Z,29.46
2019-04-25T10:05:52.193Z,30.86
2019-04-25T10:08:20.294Z,30.41
2019-04-25T10:10:49.640Z,31.21
2019-04-25T10:13:25.179Z,30.01
2019-04-25T10:16:09.399Z,29.05
2019-04-25T10:18:37.055Z,30.35
2019-04-25T10:21:08.312Z,29.10
2019-04-25T10:23:36.178Z,27.85
2019-04-25T10:26:05.275Z,26.76
2019-04-25T10:28:38.735Z,27.07
2019-04-25T10:31:06.866Z,28.96
2019-04-25T10:33:46.956Z,28.38
2019-04-25T10:36:26.166Z,27.54
2019-04-25T10:39:07.253Z,28.91
2019-04-25T10:41:30.688Z,26.84
2019-04-25T10:43:59.754Z,24.85
2019-04-25T10:46:27.521Z,24.06
2019-04-25T10:48:58.282Z,25.56
2019-04-25T10:51:29.328Z,26.97
2019-04-25T10:53:58.699Z,29.07
2019-04-25T10:56:30.591Z,28.20
2019-04-25T10:58:57.825Z,27.14
2019-04-25T11:01:28.844Z,27.32
2019-04-25T11:04:23.229Z,28.04
2019-04-25T11:06:53.970Z,28.08
2019-04-25T11:09:26.269Z,28.01
2019-04-25T11:11:54.835Z,28.74
2019-04-25T11:14:46.428Z,28.49
2019-04-25T11:17:16.685Z,27.93
2019-04-25T11:19:44.520Z,26.59
2019-04-25T11:22:15.563Z,26.41
2019-04-25T11:24:46.338Z,26.49
2019-04-25T11:27:15.817Z,25.03
2019-04-25T11:29:46.252Z,22.67
2019-04-25T11:32:14.968Z,22.09
2019-04-25T11:34:43.157Z,20.57
2019-04-25T11:37:39.787Z,20.66
2019-04-25T11:40:23.418Z,20.84
2019-04-25T11:42:51.451Z,21.14
2019-04-25T11:45:21.817Z,22.73
2019-04-25T11:48:11.249Z,24.16
2019-04-25T11:50:48.495Z,22.97
2019-04-25T11:53:33.879Z,21.40
2019-04-25T11:56:15.490Z,20.00
2019-04-25T11:58:49.005Z,18.69
2019-04-25T12:01:25.353Z,18.11
2019-04-25T12:03:56.975Z,16.21
2019-04-25T12:06:29.378Z,15.51
2019-04-25T12:08:56.498Z,16.98
2019-04-25T12:11:27.077Z,17.49
2019-04-25T12:13:55.373Z,19.08
2019-04-25T12:16:32.374Z,19.41
2019-04-25T12:19:34.990Z,18.33
2019-04-25T12:21:56.741Z,17.92
2019-04-25T12:24:25.404Z,18.24
2019-04-25T12:26:55.993Z,17.14
2019-04-25T12:29:24.438Z,15.99
2019-04-25T12:31:53.863Z,14.28
2019-04-25T12:34:21.258Z,15.22
2019-04-25T12:36:50.242Z,18.02
2019-04-25T12:39:17.552Z,18.42
2019-04-25T12:41:46.894Z,17.74
2019-04-25T12:44:31.849Z,19.15
2019-04-25T12:47:03.275Z,19.69
2019-04-25T12:49:30.776Z,19.95
2019-04-25T12:51:58.735Z,20.27
2019-04-25T12:54:25.784Z,20.70
2019-04-25T12:56:53.720Z,19.34
2019-04-25T12:59:22.043Z,17.09
2019-04-25T13:01:49.514Z,18.27
2019-04-25T13:04:34.952Z,18.20
2019-04-25T13:07:04.053Z,18.65
2019-04-25T13:09:31.224Z,17.36
2019-04-25T13:12:00.081Z,17.05
2019-04-25T13:14:27.151Z,17.06
2019-04-25T13:16:55.557Z,18.28
2019-04-25T13:19:26.418Z,18.81
2019-04-25T13:21:54.406Z,19.54
2019-04-25T13:24:24.410Z,19.37
2019-04-25T13:26:58.556Z,19.97
2019-04-25T13:29:58.773Z,19.80
2019-04-25T13:32:38.579Z,19.96
2019-04-25T13:35:11.527Z,20.38
2019-04-25T13:37:47.066Z,19.55
2019-04-25T13:40:17.523Z,18.62
2019-04-25T13:42:53.095Z,18.69
2019-04-25T13:45:26.555Z,18.12
2019-04-25T13:47:55.495Z,18.37
2019-04-25T13:50:24.626Z,19.15
2019-04-25T13:52:51.439Z,19.17
2019-04-25T13:55:18.544Z,19.29
2019-04-25T13:57:45.835Z,19.37
2019-04-25T14:00:14.669Z,19.27
2019-04-25T14:02:41.919Z,19.97
2019-04-25T14:05:09.123Z,20.04
2019-04-25T14:07:37.450Z,19.88
2019-04-25T14:10:05.751Z,20.15
2019-04-25T14:12:37.485Z,20.60
2019-04-25T14:15:07.401Z,20.55
2019-04-25T14:17:55.302Z,18.83
2019-04-25T14:20:43.942Z,18.16
2019-04-25T14:23:13.430Z,17.65
2019-04-25T14:25:40.532Z,18.92
2019-04-25T14:28:08.037Z,19.86
2019-04-25T14:30:36.214Z,20.38
2019-04-25T14:33:03.792Z,20.92
2019-04-25T14:35:33.235Z,20.50
2019-04-25T14:38:00.881Z,20.76
2019-04-25T14:40:42.275Z,20.46
2019-04-25T14:43:10.149Z,20.15
2019-04-25T14:45:44.308Z,20.22
2019-04-25T14:48:06.159Z,19.67
2019-04-25T14:50:35.929Z,18.56
2019-04-25T14:53:03.678Z,16.74
2019-04-25T14:55:54.258Z,14.99
2019-04-25T14:58:23.019Z,16.05
2019-04-25T15:00:52.450Z,17.48
2019-04-25T15:03:26.613Z,17.13
2019-04-25T15:05:53.653Z,16.34
2019-04-25T15:08:20.818Z,15.75
2019-04-25T15:10:55.542Z,15.33
2019-04-25T15:13:24.396Z,15.58
2019-04-25T15:15:51.470Z,16.16
2019-04-25T15:18:19.863Z,15.92
2019-04-25T15:20:51.228Z,14.76
2019-04-25T15:23:23.178Z,14.84
2019-04-25T15:25:51.339Z,15.30
2019-04-25T15:28:18.371Z,15.29
2019-04-25T15:30:46.000Z,15.54
2019-04-25T15:33:16.678Z,14.88
2019-04-25T15:35:55.802Z,13.38
2019-04-25T15:38:41.210Z,14.88
2019-04-25T15:41:14.817Z,17.28
2019-04-25T15:43:54.045Z,17.80
2019-04-25T15:46:28.386Z,18.68
2019-04-25T15:48:55.561Z,19.38
2019-04-25T15:51:25.433Z,19.91
2019-04-25T15:53:53.243Z,20.28
2019-04-25T15:56:21.733Z,20.12
2019-04-25T15:58:49.034Z,20.14
2019-04-25T16:01:16.472Z,20.19
2019-04-25T16:03:43.631Z,19.75
2019-04-25T16:06:11.775Z,19.38
2019-04-25T16:08:40.689Z,19.61
2019-04-25T16:11:07.851Z,20.00
2019-04-25T16:13:35.857Z,20.48
2019-04-25T16:16:03.950Z,20.69
2019-04-25T16:18:33.158Z,19.72
2019-04-25T16:21:00.336Z,17.60
2019-04-25T16:23:27.820Z,18.21
2019-04-25T16:25:56.091Z,18.31
2019-04-25T16:28:23.455Z,15.92
2019-04-25T16:30:55.255Z,16.58
2019-04-25T16:33:27.087Z,17.38
2019-04-25T16:35:57.551Z,19.27
2019-04-25T16:38:27.437Z,20.82
2019-04-25T16:40:58.249Z,21.85
2019-04-25T16:43:28.589Z,22.08
2019-04-25T16:45:56.611Z,22.77
2019-04-25T16:48:24.185Z,23.09
2019-04-25T16:50:51.260Z,22.61
2019-04-25T16:53:18.393Z,20.72
2019-04-25T16:55:45.645Z,18.69
2019-04-25T16:58:13.065Z,17.10
2019-04-25T17:01:05.816Z,16.83
2019-04-25T17:03:33.530Z,17.40
2019-04-25T17:06:00.673Z,16.02
2019-04-25T17:08:27.844Z,17.39
2019-04-25T17:10:54.926Z,17.07
2019-04-25T17:13:22.022Z,16.62
2019-04-25T17:16:08.175Z,15.66
2019-04-25T17:18:47.986Z,15.82
2019-04-25T17:21:15.578Z,16.26
2019-04-25T17:23:43.993Z,16.76
2019-04-25T17:26:13.975Z,16.78
2019-04-25T17:28:47.766Z,20.98
2019-04-25T17:31:30.122Z,25.12
2019-04-25T17:34:16.598Z,27.94
2019-04-25T17:36:54.549Z,33.58
2019-04-25T17:39:30.035Z,36.00
2019-04-25T17:41:57.169Z,39.16
2019-04-25T17:44:40.562Z,40.41
2019-04-25T17:47:09.782Z,42.25
2019-04-25T17:49:46.846Z,42.94
2019-04-25T17:52:16.999Z,42.84
2019-04-25T17:54:45.191Z,43.60
2019-04-25T17:57:12.310Z,44.10
2019-04-25T17:59:39.356Z,44.59
2019-04-25T18:02:08.506Z,44.74
2019-04-25T18:04:38.315Z,45.29
2019-04-25T18:07:05.735Z,45.13
2019-04-25T18:09:35.486Z,45.18
2019-04-25T18:12:03.843Z,45.36
2019-04-25T18:14:31.224Z,45.42
2019-04-25T18:16:58.359Z,45.61
2019-04-25T18:19:38.625Z,45.77
2019-04-25T18:22:39.156Z,45.83
2019-04-25T18:25:36.941Z,46.30
2019-04-25T18:28:09.328Z,46.42
2019-04-25T18:30:37.000Z,46.85
2019-04-25T18:33:17.842Z,46.90
2019-04-25T18:35:46.088Z,47.35
2019-04-25T18:38:29.531Z,47.35
2019-04-25T18:41:06.134Z,47.28
2019-04-25T18:43:40.119Z,47.20
2019-04-25T18:46:18.944Z,47.08
2019-04-25T18:48:47.077Z,46.95
2019-04-25T18:51:18.786Z,46.89
2019-04-25T18:54:05.643Z,46.97
2019-04-25T18:56:56.337Z,47.03
2019-04-25T18:59:49.812Z,47.26
2019-04-25T19:02:38.546Z,47.41
2019-04-25T19:05:23.939Z,47.82
2019-04-25T19:07:54.407Z,47.91
2019-04-25T19:10:22.329Z,48.32
2019-04-25T19:12:50.529Z,48.42
2019-04-25T19:15:18.165Z,48.75
2019-04-25T19:17:47.412Z,48.77
2019-04-25T19:20:18.309Z,48.98
2019-04-25T19:22:45.846Z,48.87
2019-04-25T19:25:18.424Z,48.96
2019-04-25T19:27:46.546Z,49.29
2019-04-25T19:30:18.758Z,49.59
2019-04-25T19:32:47.200Z,49.90
2019-04-25T19:35:16.322Z,50.17
2019-04-25T19:37:43.889Z,50.43
2019-04-25T19:40:44.588Z,50.56
2019-04-25T19:43:36.181Z,50.47
2019-04-25T19:46:05.333Z,51.12
2019-04-25T19:48:34.618Z,51.69
2019-04-25T19:51:02.929Z,51.82
2019-04-25T19:53:30.164Z,52.02
2019-04-25T19:56:02.646Z,52.47
2019-04-25T19:58:29.950Z,52.69
2019-04-25T20:00:58.567Z,52.92
2019-04-25T20:03:53.776Z,53.01
2019-04-25T20:06:39.735Z,53.05
2019-04-25T20:09:36.808Z,53.02
2019-04-25T20:12:04.534Z,52.74
2019-04-25T20:14:35.365Z,52.97
2019-04-25T20:17:02.575Z,52.79
2019-04-25T20:19:29.653Z,52.57
2019-04-25T20:21:56.905Z,52.79
2019-04-25T20:24:23.999Z,52.88
2019-04-25T20:26:51.299Z,52.56
2019-04-25T20:29:18.422Z,52.61
2019-04-25T20:31:48.656Z,52.50
2019-04-25T20:34:15.915Z,52.80
2019-04-25T20:36:43.216Z,53.00
2019-04-25T20:39:10.291Z,53.49
2019-04-25T20:41:39.346Z,53.96
2019-04-25T20:44:08.775Z,54.29
2019-04-25T20:46:35.868Z,53.95
2019-04-25T20:49:02.931Z,53.75
2019-04-25T20:51:30.556Z,53.91
2019-04-25T20:53:59.675Z,53.73
2019-04-25T20:56:33.320Z,53.39
2019-04-25T20:59:02.942Z,53.28
2019-04-25T21:01:33.753Z,53.25
2019-04-25T21:04:12.734Z,53.66
2019-04-25T21:06:34.337Z,53.83
2019-04-25T21:09:04.378Z,54.02
2019-04-25T21:11:34.436Z,54.44
2019-04-25T21:14:19.695Z,54.79
2019-04-25T21:17:08.440Z,54.71
2019-04-25T21:19:38.720Z,55.08
2019-04-25T21:22:05.772Z,55.91
2019-04-25T21:24:33.184Z,56.07
2019-04-25T21:27:01.007Z,55.80
2019-04-25T21:29:28.122Z,55.83
2019-04-25T21:31:56.735Z,55.79
2019-04-25T21:34:31.777Z,55.47
2019-04-25T21:36:59.733Z,55.27
2019-04-25T21:39:35.491Z,55.90
2019-04-25T21:42:14.314Z,56.04
2019-04-25T21:44:41.720Z,55.76
2019-04-25T21:47:09.210Z,56.82
2019-04-25T21:49:42.858Z,56.77
2019-04-25T21:52:10.188Z,56.60
2019-04-25T21:54:38.666Z,56.60
2019-04-25T21:57:06.965Z,56.53
2019-04-25T21:59:34.145Z,56.83
2019-04-25T22:02:04.887Z,57.03
2019-04-25T22:04:38.759Z,57.26
2019-04-25T22:07:03.060Z,57.29
2019-04-25T22:09:30.558Z,57.08
2019-04-25T22:11:59.329Z,57.16
2019-04-25T22:14:27.893Z,57.04
2019-04-25T22:16:57.664Z,57.28
2019-04-25T22:19:25.505Z,57.61
2019-04-25T22:21:57.413Z,57.82
2019-04-25T22:24:24.896Z,57.92
2019-04-25T22:26:54.169Z,58.13
2019-04-25T22:29:24.045Z,58.15
2019-04-25T22:32:04.520Z,58.18
2019-04-25T22:34:51.736Z,58.49
2019-04-25T22:37:09.930Z,58.44
2019-04-25T22:39:37.565Z,58.05
2019-04-25T22:42:05.826Z,58.44
2019-04-25T22:44:33.578Z,58.75
2019-04-25T22:47:02.231Z,58.66
2019-04-25T22:49:30.610Z,58.61
2019-04-25T22:51:57.901Z,58.64
2019-04-25T22:54:26.760Z,58.54
2019-04-25T22:56:53.846Z,58.67
2019-04-25T22:59:22.420Z,58.61
2019-04-25T23:02:10.199Z,59.02
2019-04-25T23:05:09.079Z,59.10
2019-04-25T23:07:29.855Z,59.59
2019-04-25T23:09:57.444Z,59.37
2019-04-25T23:12:24.980Z,59.93
2019-04-25T23:14:52.216Z,60.59
2019-04-25T23:17:19.410Z,61.03
2019-04-25T23:19:47.926Z,61.38
2019-04-25T23:22:15.147Z,61.62
2019-04-25T23:24:48.686Z,61.67
2019-04-25T23:27:50.780Z,61.75
2019-04-25T23:30:20.004Z,62.39
2019-04-25T23:32:49.118Z,62.51
2019-04-25T23:35:27.573Z,62.60
2019-04-25T23:37:46.270Z,62.36
2019-04-25T23:40:13.759Z,62.56
2019-04-25T23:42:43.212Z,62.39
2019-04-25T23:45:10.395Z,62.20
2019-04-25T23:47:37.790Z,61.71
2019-04-25T23:50:07.037Z,62.09
2019-04-25T23:52:34.282Z,62.35
2019-04-25T23:55:01.334Z,62.32
2019-04-25T23:57:28.433Z,62.37
2019-04-25T23:59:55.469Z,62.68
